Decoded Metar for KNRB (MAYPORT NAS in FL, USA) (IATA:NRB) | Meteo·Mobile Aviation Weather
aviador You're here:

KNRB Decoded Metar

MAYPORT NAS in FL, USA
Report Time2020-01-29 12:52:00
UTC Time2020-01-29 13:40:16
Flight Rules vfr VFR
WindCalm
Visibility9999 m
Phenomena:N/A
Clouds:Few 100 Hf
Scattered 250 Hf
CeilingNone
Temp07°C (ISA -8)
Dew Point07°C (100% RH)
AAT6.3°C
QNH1017 hPa
Density Alt-945 ft
Elevation16 ft
Report Wrong Elevation
Raw Report
KNRB 291252Z 00000KT 9SM FEW100 SCT250 07/07 A3002 RMK AO2 SLP163
T00670067 $=

Extra information for KNRB:More info

Metar Taf Metar & Taf Last 4 Metars F.Rules Stats Wind Profile Meteogram Temp Stats Airport Information Weather charts Add Link Nearby VenuesMetar ALERT Operation Metar Decoded Social comments

AIRNAV info for KNRB